Weatherford, OK

5:27 AM CDT on July 12, 2014 (GMT -0500)
Clinton Municipal (KCLK) Elev 1614 ft | 35.54 °N, 98.93 °W | Change Station

Current weather conditions updated 12 minutes ago

Scattered Clouds
Scattered Clouds
73 °F
Feels Like 73 °F
N
9
Wind Variable Wind from South

Today is forecast to be Warmer than yesterday.

Today
High -- | Low -- °F
--% Chance of Precip.
Yesterday
High -- | Low -- °F
Precip. -- in
6:28 AM 8:51 PM
Full, 100% visible
Pressure 30.12 in
Visibility 10.0 miles
Clouds Scattered Clouds 9500 ft
Dew Point 57 °F
Humidity 57%
Rainfall 0.00 in
Snow Depth Not available.
UV 0 out of 12
Pollen 5.00 out of 12
Air Quality Not available.
Flu Activity Local Activity
METAR KCLK 121015Z AUTO 17008KT 10SM SCT095 23/14 A3012 RMK AO2

More Conditions Fewer Conditions

Pressure 30.12 in
Visibility 10.0 miles
Clouds Scattered Clouds 9500 ft
Dew Point 57 °F
Humidity 57%
Rainfall 0.00 in
Snow Depth Not available.
UV 0 out of 12
Pollen 5.00 out of 12
Air Quality Not available.
Flu Activity Local Activity
METAR KCLK 121015Z AUTO 17008KT 10SM SCT095 23/14 A3012 RMK AO2

More Conditions Fewer Conditions

10-Day Weather Forecast

Almanac

Astronomy

Jul. 12, 2014 Rise Set
Actual Time 6:28 AM CDT 8:51 PM CDT
Civil Twilight 5:59 AM CDT 9:21 PM CDT
Nautical Twilight 5:23 AM CDT 9:57 PM CDT
Astronomical Twilight 4:43 AM CDT 10:36 PM CDT
Moon 8:58 PM CDT 6:47 AM CDT
Length of Visible Light 15h 21m
Length of Day
14h 22m
Tomorrow will be 1m 2s shorter.
Full, 100% of the Moon is Illuminated
Today
Full
Jul 12
Full
Jul 18
Last Quarter
Jul 26
New
Aug 3
First Quarter

Today's Extremes

State Highs State Lows

Community

WunderPhotos

Upload Photos

1,732,765 photos uploaded!

Nearby

Snow Depth

Station Depth Elevation
No new snow has been reported.

Earthquake Activity

City Distance Mag. Time & Date
Cherokee, Oklahoma 91 miles 2.8 10:43 AM CDT
2014-07-06
Medford, Oklahoma 93 miles 3.1 10:22 AM CDT
2014-07-06
Medford, Oklahoma 98 miles 3.2 11:10 PM CDT
2014-07-05
Perry, Oklahoma 81 miles 3.3 8:44 PM CDT
2014-07-05
Minimum magnitude displayed is 2.5.

Coastal Water Temperatures

Place Temperature
No Stations Reporting

Nearby Weather Stations

Station Location Temp. Heat Index Dew Point Humidity Wind Precip. Elev Updated Type
Custer City, Custer City, OK 75.4 °F 77 °F 63 °F 66% South  at  2.0 mph 0.00 in / hr 1775 ft 5:27 AM CDT Rapid Fire

Show More Stations Show Fewer Stations